sensor_id;sensor_type;location;lat;lon;timestamp;P1;durP1;ratioP1;P2;durP2;ratioP2
68365;SDS011;55283;51.466;5.478;2023-03-03T00:00:58;2.17;;;1.77;;
68365;SDS011;55283;51.466;5.478;2023-03-03T00:03:26;2.50;;;1.83;;
68365;SDS011;55283;51.466;5.478;2023-03-03T00:05:51;2.13;;;1.93;;
68365;SDS011;55283;51.466;5.478;2023-03-03T00:08:18;2.42;;;2.00;;
68365;SDS011;55283;51.466;5.478;2023-03-03T00:10:47;2.10;;;1.80;;
68365;SDS011;55283;51.466;5.478;2023-03-03T00:13:18;2.10;;;1.90;;
68365;SDS011;55283;51.466;5.478;2023-03-03T00:15:47;2.10;;;1.90;;
68365;SDS011;55283;51.466;5.478;2023-03-03T00:20:59;2.10;;;1.90;;
68365;SDS011;55283;51.466;5.478;2023-03-03T00:23:30;2.07;;;1.87;;
68365;SDS011;55283;51.466;5.478;2023-03-03T00:25:59;2.20;;;2.00;;
68365;SDS011;55283;51.466;5.478;2023-03-03T00:28:29;2.43;;;2.00;;
68365;SDS011;55283;51.466;5.478;2023-03-03T00:31:00;2.05;;;1.80;;
68365;SDS011;55283;51.466;5.478;2023-03-03T00:33:30;2.30;;;2.00;;
68365;SDS011;55283;51.466;5.478;2023-03-03T00:39:10;2.40;;;1.90;;
68365;SDS011;55283;51.466;5.478;2023-03-03T00:41:48;3.22;;;2.10;;
68365;SDS011;55283;51.466;5.478;2023-03-03T00:49:59;2.13;;;1.80;;
68365;SDS011;55283;51.466;5.478;2023-03-03T00:53:04;1.77;;;1.67;;
68365;SDS011;55283;51.466;5.478;2023-03-03T00:55:41;3.83;;;2.10;;
68365;SDS011;55283;51.466;5.478;2023-03-03T00:58:07;2.20;;;2.00;;
68365;SDS011;55283;51.466;5.478;2023-03-03T01:00:34;2.40;;;2.20;;
68365;SDS011;55283;51.466;5.478;2023-03-03T01:03:04;2.07;;;1.87;;
68365;SDS011;55283;51.466;5.478;2023-03-03T01:05:31;2.35;;;2.10;;
68365;SDS011;55283;51.466;5.478;2023-03-03T01:07:57;2.15;;;1.95;;
68365;SDS011;55283;51.466;5.478;2023-03-03T01:10:26;2.20;;;2.00;;
68365;SDS011;55283;51.466;5.478;2023-03-03T01:12:54;2.20;;;2.00;;
68365;SDS011;55283;51.466;5.478;2023-03-03T01:15:20;2.50;;;2.30;;
68365;SDS011;55283;51.466;5.478;2023-03-03T01:17:45;2.10;;;1.90;;
68365;SDS011;55283;51.466;5.478;2023-03-03T01:20:11;2.53;;;1.90;;
68365;SDS011;55283;51.466;5.478;2023-03-03T01:22:38;1.83;;;1.70;;
68365;SDS011;55283;51.466;5.478;2023-03-03T01:25:04;2.67;;;2.00;;
68365;SDS011;55283;51.466;5.478;2023-03-03T01:27:33;2.10;;;1.90;;
68365;SDS011;55283;51.466;5.478;2023-03-03T01:30:03;2.05;;;1.85;;
68365;SDS011;55283;51.466;5.478;2023-03-03T01:32:29;2.10;;;1.90;;
68365;SDS011;55283;51.466;5.478;2023-03-03T01:34:55;2.13;;;1.92;;
68365;SDS011;55283;51.466;5.478;2023-03-03T01:37:20;2.20;;;2.00;;
68365;SDS011;55283;51.466;5.478;2023-03-03T01:39:49;2.73;;;2.20;;
68365;SDS011;55283;51.466;5.478;2023-03-03T01:42:15;1.83;;;1.60;;
68365;SDS011;55283;51.466;5.478;2023-03-03T01:44:41;2.23;;;1.90;;
68365;SDS011;55283;51.466;5.478;2023-03-03T01:47:09;2.13;;;1.88;;
68365;SDS011;55283;51.466;5.478;2023-03-03T01:49:49;2.15;;;1.90;;
68365;SDS011;55283;51.466;5.478;2023-03-03T01:52:37;1.90;;;1.70;;
68365;SDS011;55283;51.466;5.478;2023-03-03T01:55:05;2.10;;;1.77;;
68365;SDS011;55283;51.466;5.478;2023-03-03T01:57:42;2.03;;;1.83;;
68365;SDS011;55283;51.466;5.478;2023-03-03T02:00:12;2.10;;;1.90;;
68365;SDS011;55283;51.466;5.478;2023-03-03T02:02:37;2.07;;;1.83;;
68365;SDS011;55283;51.466;5.478;2023-03-03T02:05:06;2.42;;;1.80;;
68365;SDS011;55283;51.466;5.478;2023-03-03T02:07:32;2.10;;;1.90;;
68365;SDS011;55283;51.466;5.478;2023-03-03T02:10:00;2.10;;;1.90;;
68365;SDS011;55283;51.466;5.478;2023-03-03T02:12:31;2.13;;;1.75;;
68365;SDS011;55283;51.466;5.478;2023-03-03T02:17:43;2.03;;;1.83;;
68365;SDS011;55283;51.466;5.478;2023-03-03T02:20:15;2.38;;;1.88;;
68365;SDS011;55283;51.466;5.478;2023-03-03T02:22:56;2.57;;;1.97;;
68365;SDS011;55283;51.466;5.478;2023-03-03T02:25:32;2.22;;;2.03;;
68365;SDS011;55283;51.466;5.478;2023-03-03T02:28:05;2.17;;;1.73;;
68365;SDS011;55283;51.466;5.478;2023-03-03T02:30:30;2.00;;;1.80;;
68365;SDS011;55283;51.466;5.478;2023-03-03T02:33:01;2.35;;;1.92;;
68365;SDS011;55283;51.466;5.478;2023-03-03T02:35:28;2.40;;;2.17;;
68365;SDS011;55283;51.466;5.478;2023-03-03T02:37:58;1.98;;;1.77;;
68365;SDS011;55283;51.466;5.478;2023-03-03T02:40:32;2.30;;;2.00;;
68365;SDS011;55283;51.466;5.478;2023-03-03T02:43:01;2.90;;;1.80;;
68365;SDS011;55283;51.466;5.478;2023-03-03T02:45:28;1.95;;;1.75;;
68365;SDS011;55283;51.466;5.478;2023-03-03T02:47:53;2.00;;;1.70;;
68365;SDS011;55283;51.466;5.478;2023-03-03T02:50:21;2.13;;;1.80;;
68365;SDS011;55283;51.466;5.478;2023-03-03T02:52:46;2.30;;;2.00;;
68365;SDS011;55283;51.466;5.478;2023-03-03T02:55:11;2.17;;;1.97;;
68365;SDS011;55283;51.466;5.478;2023-03-03T02:57:37;1.97;;;1.77;;
68365;SDS011;55283;51.466;5.478;2023-03-03T03:00:05;1.92;;;1.70;;
68365;SDS011;55283;51.466;5.478;2023-03-03T03:02:34;2.20;;;2.00;;
68365;SDS011;55283;51.466;5.478;2023-03-03T03:04:59;2.00;;;1.80;;
68365;SDS011;55283;51.466;5.478;2023-03-03T03:07:24;2.33;;;1.97;;
68365;SDS011;55283;51.466;5.478;2023-03-03T03:09:50;2.43;;;2.23;;
68365;SDS011;55283;51.466;5.478;2023-03-03T03:12:15;2.38;;;2.17;;
68365;SDS011;55283;51.466;5.478;2023-03-03T03:14:43;2.30;;;2.10;;
68365;SDS011;55283;51.466;5.478;2023-03-03T03:17:11;1.98;;;1.83;;
68365;SDS011;55283;51.466;5.478;2023-03-03T03:19:37;2.20;;;2.00;;
68365;SDS011;55283;51.466;5.478;2023-03-03T03:22:02;2.55;;;1.90;;
68365;SDS011;55283;51.466;5.478;2023-03-03T03:24:28;2.40;;;2.00;;
68365;SDS011;55283;51.466;5.478;2023-03-03T03:26:58;2.30;;;1.90;;
68365;SDS011;55283;51.466;5.478;2023-03-03T03:29:24;2.03;;;1.83;;
68365;SDS011;55283;51.466;5.478;2023-03-03T03:31:55;2.38;;;1.95;;
68365;SDS011;55283;51.466;5.478;2023-03-03T03:34:21;2.30;;;2.10;;
68365;SDS011;55283;51.466;5.478;2023-03-03T03:36:46;1.83;;;1.73;;
68365;SDS011;55283;51.466;5.478;2023-03-03T03:39:12;1.90;;;1.80;;
68365;SDS011;55283;51.466;5.478;2023-03-03T03:41:37;2.57;;;2.10;;
68365;SDS011;55283;51.466;5.478;2023-03-03T03:44:05;2.55;;;1.70;;
68365;SDS011;55283;51.466;5.478;2023-03-03T03:46:31;1.70;;;1.60;;
68365;SDS011;55283;51.466;5.478;2023-03-03T03:48:56;3.10;;;2.20;;
68365;SDS011;55283;51.466;5.478;2023-03-03T03:51:21;2.20;;;2.00;;
68365;SDS011;55283;51.466;5.478;2023-03-03T03:53:47;1.90;;;1.70;;
68365;SDS011;55283;51.466;5.478;2023-03-03T03:56:12;2.35;;;1.95;;
68365;SDS011;55283;51.466;5.478;2023-03-03T03:58:39;2.07;;;1.87;;
68365;SDS011;55283;51.466;5.478;2023-03-03T04:01:10;2.30;;;1.90;;
68365;SDS011;55283;51.466;5.478;2023-03-03T04:03:35;2.10;;;1.80;;
68365;SDS011;55283;51.466;5.478;2023-03-03T04:06:04;2.08;;;1.75;;
68365;SDS011;55283;51.466;5.478;2023-03-03T04:08:29;2.10;;;1.87;;
68365;SDS011;55283;51.466;5.478;2023-03-03T04:10:54;2.30;;;2.10;;
68365;SDS011;55283;51.466;5.478;2023-03-03T04:13:20;2.00;;;1.80;;
68365;SDS011;55283;51.466;5.478;2023-03-03T04:15:45;2.30;;;2.10;;
68365;SDS011;55283;51.466;5.478;2023-03-03T04:18:11;2.20;;;2.00;;
68365;SDS011;55283;51.466;5.478;2023-03-03T04:20:38;2.92;;;2.17;;
68365;SDS011;55283;51.466;5.478;2023-03-03T04:23:04;2.10;;;1.90;;
68365;SDS011;55283;51.466;5.478;2023-03-03T04:25:29;2.20;;;1.90;;
68365;SDS011;55283;51.466;5.478;2023-03-03T04:27:55;2.00;;;1.80;;
68365;SDS011;55283;51.466;5.478;2023-03-03T04:30:23;2.13;;;1.85;;
68365;SDS011;55283;51.466;5.478;2023-03-03T04:32:51;2.20;;;2.00;;
68365;SDS011;55283;51.466;5.478;2023-03-03T04:35:17;2.35;;;1.90;;
68365;SDS011;55283;51.466;5.478;2023-03-03T04:37:43;2.60;;;2.00;;
68365;SDS011;55283;51.466;5.478;2023-03-03T04:40:09;1.80;;;1.70;;
68365;SDS011;55283;51.466;5.478;2023-03-03T04:42:34;2.07;;;1.87;;
68365;SDS011;55283;51.466;5.478;2023-03-03T04:45:00;1.83;;;1.70;;
68365;SDS011;55283;51.466;5.478;2023-03-03T04:47:26;1.90;;;1.60;;
68365;SDS011;55283;51.466;5.478;2023-03-03T04:49:51;2.43;;;1.80;;
68365;SDS011;55283;51.466;5.478;2023-03-03T04:52:16;2.03;;;1.83;;
68365;SDS011;55283;51.466;5.478;2023-03-03T04:54:45;2.07;;;1.87;;
68365;SDS011;55283;51.466;5.478;2023-03-03T04:57:13;1.98;;;1.70;;
68365;SDS011;55283;51.466;5.478;2023-03-03T04:59:41;2.10;;;1.90;;
68365;SDS011;55283;51.466;5.478;2023-03-03T05:02:07;2.20;;;1.80;;
68365;SDS011;55283;51.466;5.478;2023-03-03T05:04:32;1.70;;;1.60;;
68365;SDS011;55283;51.466;5.478;2023-03-03T05:06:58;2.65;;;2.03;;
68365;SDS011;55283;51.466;5.478;2023-03-03T05:09:23;2.20;;;2.00;;
68365;SDS011;55283;51.466;5.478;2023-03-03T05:11:48;2.03;;;1.77;;
68365;SDS011;55283;51.466;5.478;2023-03-03T05:14:14;1.90;;;1.80;;
68365;SDS011;55283;51.466;5.478;2023-03-03T05:16:39;2.47;;;1.90;;
68365;SDS011;55283;51.466;5.478;2023-03-03T05:19:05;2.20;;;2.00;;
68365;SDS011;55283;51.466;5.478;2023-03-03T05:21:30;2.90;;;1.90;;
68365;SDS011;55283;51.466;5.478;2023-03-03T05:23:55;2.40;;;1.80;;
68365;SDS011;55283;51.466;5.478;2023-03-03T05:26:21;1.87;;;1.67;;
68365;SDS011;55283;51.466;5.478;2023-03-03T05:28:46;2.20;;;2.00;;
68365;SDS011;55283;51.466;5.478;2023-03-03T05:31:12;2.20;;;2.00;;
68365;SDS011;55283;51.466;5.478;2023-03-03T05:33:37;1.90;;;1.77;;
68365;SDS011;55283;51.466;5.478;2023-03-03T05:36:02;2.47;;;2.00;;
68365;SDS011;55283;51.466;5.478;2023-03-03T05:38:28;2.15;;;1.95;;
68365;SDS011;55283;51.466;5.478;2023-03-03T05:40:56;2.90;;;2.03;;
68365;SDS011;55283;51.466;5.478;2023-03-03T05:43:22;2.20;;;2.00;;
68365;SDS011;55283;51.466;5.478;2023-03-03T05:45:47;2.15;;;1.80;;
68365;SDS011;55283;51.466;5.478;2023-03-03T05:48:21;2.27;;;1.93;;
68365;SDS011;55283;51.466;5.478;2023-03-03T05:50:47;2.08;;;1.88;;
68365;SDS011;55283;51.466;5.478;2023-03-03T05:53:12;2.30;;;2.10;;
68365;SDS011;55283;51.466;5.478;2023-03-03T05:55:37;2.30;;;1.83;;
68365;SDS011;55283;51.466;5.478;2023-03-03T05:58:03;1.90;;;1.70;;
68365;SDS011;55283;51.466;5.478;2023-03-03T06:00:28;1.97;;;1.70;;
68365;SDS011;55283;51.466;5.478;2023-03-03T06:02:54;2.00;;;1.80;;
68365;SDS011;55283;51.466;5.478;2023-03-03T06:05:19;2.10;;;1.90;;
68365;SDS011;55283;51.466;5.478;2023-03-03T06:07:47;2.10;;;1.90;;
68365;SDS011;55283;51.466;5.478;2023-03-03T06:10:13;2.45;;;2.00;;
68365;SDS011;55283;51.466;5.478;2023-03-03T06:12:38;2.03;;;1.80;;
68365;SDS011;55283;51.466;5.478;2023-03-03T06:15:06;2.03;;;1.80;;
68365;SDS011;55283;51.466;5.478;2023-03-03T06:17:32;2.10;;;1.88;;
68365;SDS011;55283;51.466;5.478;2023-03-03T06:19:57;3.10;;;2.20;;
68365;SDS011;55283;51.466;5.478;2023-03-03T06:22:25;2.13;;;1.92;;
68365;SDS011;55283;51.466;5.478;2023-03-03T06:24:53;2.00;;;1.80;;
68365;SDS011;55283;51.466;5.478;2023-03-03T06:27:18;2.00;;;1.77;;
68365;SDS011;55283;51.466;5.478;2023-03-03T06:29:44;2.00;;;1.80;;
68365;SDS011;55283;51.466;5.478;2023-03-03T06:32:11;2.92;;;1.83;;
68365;SDS011;55283;51.466;5.478;2023-03-03T06:34:37;2.40;;;1.90;;
68365;SDS011;55283;51.466;5.478;2023-03-03T06:37:02;2.23;;;1.90;;
68365;SDS011;55283;51.466;5.478;2023-03-03T06:39:28;1.90;;;1.70;;
68365;SDS011;55283;51.466;5.478;2023-03-03T06:41:53;2.10;;;1.80;;
68365;SDS011;55283;51.466;5.478;2023-03-03T06:44:18;3.87;;;2.00;;
68365;SDS011;55283;51.466;5.478;2023-03-03T06:46:44;2.23;;;1.67;;
68365;SDS011;55283;51.466;5.478;2023-03-03T06:49:09;5.00;;;1.80;;
68365;SDS011;55283;51.466;5.478;2023-03-03T06:51:35;2.10;;;1.67;;
68365;SDS011;55283;51.466;5.478;2023-03-03T06:56:38;2.28;;;2.00;;
68365;SDS011;55283;51.466;5.478;2023-03-03T06:59:05;3.97;;;1.93;;
68365;SDS011;55283;51.466;5.478;2023-03-03T07:01:46;4.88;;;2.00;;
68365;SDS011;55283;51.466;5.478;2023-03-03T07:04:15;2.03;;;1.77;;
68365;SDS011;55283;51.466;5.478;2023-03-03T07:06:59;4.45;;;2.00;;
68365;SDS011;55283;51.466;5.478;2023-03-03T07:09:34;4.43;;;2.90;;
68365;SDS011;55283;51.466;5.478;2023-03-03T07:12:08;6.40;;;3.75;;
68365;SDS011;55283;51.466;5.478;2023-03-03T07:14:47;5.30;;;3.42;;
68365;SDS011;55283;51.466;5.478;2023-03-03T07:17:20;4.30;;;2.87;;
68365;SDS011;55283;51.466;5.478;2023-03-03T07:19:49;7.13;;;2.80;;
68365;SDS011;55283;51.466;5.478;2023-03-03T07:22:21;4.40;;;2.47;;
68365;SDS011;55283;51.466;5.478;2023-03-03T07:24:52;6.55;;;2.70;;
68365;SDS011;55283;51.466;5.478;2023-03-03T07:27:25;8.98;;;4.03;;
68365;SDS011;55283;51.466;5.478;2023-03-03T07:29:53;6.03;;;4.27;;
68365;SDS011;55283;51.466;5.478;2023-03-03T07:35:51;7.35;;;3.15;;
68365;SDS011;55283;51.466;5.478;2023-03-03T07:38:22;5.33;;;3.17;;
68365;SDS011;55283;51.466;5.478;2023-03-03T07:40:53;5.05;;;3.25;;
68365;SDS011;55283;51.466;5.478;2023-03-03T07:46:01;5.47;;;2.95;;
68365;SDS011;55283;51.466;5.478;2023-03-03T07:48:37;7.90;;;3.20;;
68365;SDS011;55283;51.466;5.478;2023-03-03T07:51:20;5.55;;;3.10;;
68365;SDS011;55283;51.466;5.478;2023-03-03T07:56:45;3.40;;;2.77;;
68365;SDS011;55283;51.466;5.478;2023-03-03T07:59:34;5.18;;;3.05;;
68365;SDS011;55283;51.466;5.478;2023-03-03T08:02:01;4.78;;;2.78;;
68365;SDS011;55283;51.466;5.478;2023-03-03T08:04:41;4.13;;;2.93;;
68365;SDS011;55283;51.466;5.478;2023-03-03T08:07:18;7.22;;;5.15;;
68365;SDS011;55283;51.466;5.478;2023-03-03T08:09:47;10.77;;;6.20;;
68365;SDS011;55283;51.466;5.478;2023-03-03T08:14:40;4.63;;;3.50;;
68365;SDS011;55283;51.466;5.478;2023-03-03T08:17:16;6.90;;;3.57;;
68365;SDS011;55283;51.466;5.478;2023-03-03T08:19:45;5.13;;;3.30;;
68365;SDS011;55283;51.466;5.478;2023-03-03T08:22:14;5.27;;;3.50;;
68365;SDS011;55283;51.466;5.478;2023-03-03T08:24:48;5.68;;;3.70;;
68365;SDS011;55283;51.466;5.478;2023-03-03T08:27:14;7.10;;;3.33;;
68365;SDS011;55283;51.466;5.478;2023-03-03T08:29:39;12.32;;;8.50;;
68365;SDS011;55283;51.466;5.478;2023-03-03T08:32:05;13.73;;;9.73;;
68365;SDS011;55283;51.466;5.478;2023-03-03T08:34:32;15.43;;;9.80;;
68365;SDS011;55283;51.466;5.478;2023-03-03T08:36:58;12.57;;;8.27;;
68365;SDS011;55283;51.466;5.478;2023-03-03T08:39:23;13.77;;;6.50;;
68365;SDS011;55283;51.466;5.478;2023-03-03T08:41:49;9.10;;;5.30;;
68365;SDS011;55283;51.466;5.478;2023-03-03T08:44:14;9.43;;;5.53;;
68365;SDS011;55283;51.466;5.478;2023-03-03T08:46:40;9.15;;;5.68;;
68365;SDS011;55283;51.466;5.478;2023-03-03T08:49:07;10.40;;;5.43;;
68365;SDS011;55283;51.466;5.478;2023-03-03T08:51:38;10.65;;;5.75;;
68365;SDS011;55283;51.466;5.478;2023-03-03T08:54:04;9.80;;;6.07;;
68365;SDS011;55283;51.466;5.478;2023-03-03T08:56:32;9.80;;;5.47;;
68365;SDS011;55283;51.466;5.478;2023-03-03T08:58:57;8.07;;;5.23;;
68365;SDS011;55283;51.466;5.478;2023-03-03T09:01:22;8.67;;;5.40;;
68365;SDS011;55283;51.466;5.478;2023-03-03T09:03:51;7.35;;;4.88;;
68365;SDS011;55283;51.466;5.478;2023-03-03T09:06:19;8.60;;;5.07;;
68365;SDS011;55283;51.466;5.478;2023-03-03T09:08:53;8.32;;;5.10;;
68365;SDS011;55283;51.466;5.478;2023-03-03T09:11:21;7.38;;;4.70;;
68365;SDS011;55283;51.466;5.478;2023-03-03T09:13:50;7.27;;;4.80;;
68365;SDS011;55283;51.466;5.478;2023-03-03T09:16:18;6.82;;;4.50;;
68365;SDS011;55283;51.466;5.478;2023-03-03T09:18:46;6.30;;;4.28;;
68365;SDS011;55283;51.466;5.478;2023-03-03T09:21:20;6.90;;;4.43;;
68365;SDS011;55283;51.466;5.478;2023-03-03T09:23:57;7.47;;;4.38;;
68365;SDS011;55283;51.466;5.478;2023-03-03T09:26:43;6.53;;;4.10;;
68365;SDS011;55283;51.466;5.478;2023-03-03T09:31:40;5.15;;;3.65;;
68365;SDS011;55283;51.466;5.478;2023-03-03T09:34:15;6.60;;;3.67;;
68365;SDS011;55283;51.466;5.478;2023-03-03T09:36:48;7.22;;;3.88;;
68365;SDS011;55283;51.466;5.478;2023-03-03T09:58:31;4.97;;;3.15;;
68365;SDS011;55283;51.466;5.478;2023-03-03T10:06:13;5.18;;;3.70;;
68365;SDS011;55283;51.466;5.478;2023-03-03T10:08:50;5.78;;;3.60;;
68365;SDS011;55283;51.466;5.478;2023-03-03T10:19:30;5.82;;;3.10;;
68365;SDS011;55283;51.466;5.478;2023-03-03T10:24:41;4.38;;;3.00;;
68365;SDS011;55283;51.466;5.478;2023-03-03T10:27:47;5.03;;;3.20;;
68365;SDS011;55283;51.466;5.478;2023-03-03T10:36:02;3.60;;;2.80;;
68365;SDS011;55283;51.466;5.478;2023-03-03T10:38:57;3.83;;;3.00;;
68365;SDS011;55283;51.466;5.478;2023-03-03T10:55:20;4.40;;;3.00;;
68365;SDS011;55283;51.466;5.478;2023-03-03T11:06:16;4.32;;;2.80;;
68365;SDS011;55283;51.466;5.478;2023-03-03T11:08:54;3.07;;;2.43;;
68365;SDS011;55283;51.466;5.478;2023-03-03T11:20:37;4.72;;;2.97;;
68365;SDS011;55283;51.466;5.478;2023-03-03T11:26:10;3.75;;;2.90;;
68365;SDS011;55283;51.466;5.478;2023-03-03T11:29:08;5.27;;;2.93;;
68365;SDS011;55283;51.466;5.478;2023-03-03T11:34:28;3.83;;;2.58;;
68365;SDS011;55283;51.466;5.478;2023-03-03T11:39:52;4.32;;;2.42;;
68365;SDS011;55283;51.466;5.478;2023-03-03T11:42:24;4.47;;;3.13;;
68365;SDS011;55283;51.466;5.478;2023-03-03T11:45:04;6.53;;;3.20;;
68365;SDS011;55283;51.466;5.478;2023-03-03T11:47:45;5.18;;;3.10;;
68365;SDS011;55283;51.466;5.478;2023-03-03T11:50:29;3.95;;;2.80;;
68365;SDS011;55283;51.466;5.478;2023-03-03T11:55:34;3.20;;;2.67;;
68365;SDS011;55283;51.466;5.478;2023-03-03T11:58:20;6.00;;;2.78;;
68365;SDS011;55283;51.466;5.478;2023-03-03T12:00:53;5.35;;;2.80;;
68365;SDS011;55283;51.466;5.478;2023-03-03T12:09:38;5.47;;;2.80;;
68365;SDS011;55283;51.466;5.478;2023-03-03T12:12:19;4.90;;;2.90;;
68365;SDS011;55283;51.466;5.478;2023-03-03T12:20:47;5.50;;;2.80;;
68365;SDS011;55283;51.466;5.478;2023-03-03T12:28:54;3.47;;;2.70;;
68365;SDS011;55283;51.466;5.478;2023-03-03T12:31:47;3.63;;;2.50;;
68365;SDS011;55283;51.466;5.478;2023-03-03T12:34:26;3.67;;;2.75;;
68365;SDS011;55283;51.466;5.478;2023-03-03T12:37:18;5.65;;;2.60;;
68365;SDS011;55283;51.466;5.478;2023-03-03T12:45:32;3.40;;;2.63;;
68365;SDS011;55283;51.466;5.478;2023-03-03T12:48:16;3.70;;;2.72;;
68365;SDS011;55283;51.466;5.478;2023-03-03T12:51:03;3.53;;;2.60;;
68365;SDS011;55283;51.466;5.478;2023-03-03T12:56:07;3.85;;;2.40;;
68365;SDS011;55283;51.466;5.478;2023-03-03T13:06:26;3.03;;;2.50;;
68365;SDS011;55283;51.466;5.478;2023-03-03T13:11:32;2.90;;;2.50;;
68365;SDS011;55283;51.466;5.478;2023-03-03T13:16:45;2.50;;;2.20;;
68365;SDS011;55283;51.466;5.478;2023-03-03T13:19:31;2.85;;;2.33;;
68365;SDS011;55283;51.466;5.478;2023-03-03T13:27:26;2.88;;;2.30;;
68365;SDS011;55283;51.466;5.478;2023-03-03T13:30:02;2.88;;;2.30;;
68365;SDS011;55283;51.466;5.478;2023-03-03T13:38:21;4.20;;;2.40;;
68365;SDS011;55283;51.466;5.478;2023-03-03T13:43:29;3.23;;;2.37;;
68365;SDS011;55283;51.466;5.478;2023-03-03T14:05:13;3.13;;;2.20;;
68365;SDS011;55283;51.466;5.478;2023-03-03T14:10:22;4.30;;;2.30;;
68365;SDS011;55283;51.466;5.478;2023-03-03T14:15:29;3.88;;;2.10;;
68365;SDS011;55283;51.466;5.478;2023-03-03T14:18:28;2.50;;;2.10;;
68365;SDS011;55283;51.466;5.478;2023-03-03T14:21:08;2.53;;;2.10;;
68365;SDS011;55283;51.466;5.478;2023-03-03T14:26:28;3.27;;;2.10;;
68365;SDS011;55283;51.466;5.478;2023-03-03T14:29:03;2.70;;;2.03;;
68365;SDS011;55283;51.466;5.478;2023-03-03T14:31:40;2.53;;;2.00;;
68365;SDS011;55283;51.466;5.478;2023-03-03T14:37:09;2.58;;;2.00;;
68365;SDS011;55283;51.466;5.478;2023-03-03T14:40:19;2.77;;;2.30;;
68365;SDS011;55283;51.466;5.478;2023-03-03T14:42:54;3.03;;;2.22;;
68365;SDS011;55283;51.466;5.478;2023-03-03T14:45:28;2.92;;;2.05;;
68365;SDS011;55283;51.466;5.478;2023-03-03T14:47:55;3.50;;;2.10;;
68365;SDS011;55283;51.466;5.478;2023-03-03T14:50:37;3.17;;;2.23;;
68365;SDS011;55283;51.466;5.478;2023-03-03T14:53:09;3.13;;;2.17;;
68365;SDS011;55283;51.466;5.478;2023-03-03T14:55:48;2.65;;;2.00;;
68365;SDS011;55283;51.466;5.478;2023-03-03T14:58:23;2.23;;;1.87;;
68365;SDS011;55283;51.466;5.478;2023-03-03T15:00:49;2.38;;;2.03;;
68365;SDS011;55283;51.466;5.478;2023-03-03T15:05:50;2.37;;;2.00;;
68365;SDS011;55283;51.466;5.478;2023-03-03T15:08:34;2.72;;;2.05;;
68365;SDS011;55283;51.466;5.478;2023-03-03T15:11:20;2.20;;;2.00;;
68365;SDS011;55283;51.466;5.478;2023-03-03T15:13:52;2.78;;;2.10;;
68365;SDS011;55283;51.466;5.478;2023-03-03T15:16:21;2.63;;;2.20;;
68365;SDS011;55283;51.466;5.478;2023-03-03T15:19:02;2.70;;;2.20;;
68365;SDS011;55283;51.466;5.478;2023-03-03T15:24:26;2.67;;;2.30;;
68365;SDS011;55283;51.466;5.478;2023-03-03T15:26:55;5.00;;;2.30;;
68365;SDS011;55283;51.466;5.478;2023-03-03T15:34:56;2.90;;;2.03;;
68365;SDS011;55283;51.466;5.478;2023-03-03T15:40:25;1.92;;;1.73;;
68365;SDS011;55283;51.466;5.478;2023-03-03T15:45:39;2.70;;;2.20;;
68365;SDS011;55283;51.466;5.478;2023-03-03T16:06:36;2.20;;;1.85;;
68365;SDS011;55283;51.466;5.478;2023-03-03T16:09:23;2.10;;;1.90;;
68365;SDS011;55283;51.466;5.478;2023-03-03T16:12:06;2.15;;;1.73;;
68365;SDS011;55283;51.466;5.478;2023-03-03T16:17:25;5.78;;;3.53;;
68365;SDS011;55283;51.466;5.478;2023-03-03T16:23:05;80.47;;;19.80;;
68365;SDS011;55283;51.466;5.478;2023-03-03T16:28:12;49.63;;;11.80;;
68365;SDS011;55283;51.466;5.478;2023-03-03T16:30:49;41.95;;;12.98;;
68365;SDS011;55283;51.466;5.478;2023-03-03T16:33:25;60.53;;;14.93;;
68365;SDS011;55283;51.466;5.478;2023-03-03T16:41:41;52.83;;;14.63;;
68365;SDS011;55283;51.466;5.478;2023-03-03T16:47:47;55.83;;;13.63;;
68365;SDS011;55283;51.466;5.478;2023-03-03T16:50:35;62.50;;;12.90;;
68365;SDS011;55283;51.466;5.478;2023-03-03T16:56:09;44.20;;;12.23;;
68365;SDS011;55283;51.466;5.478;2023-03-03T17:07:26;41.10;;;11.48;;
68365;SDS011;55283;51.466;5.478;2023-03-03T17:20:48;38.33;;;11.48;;
68365;SDS011;55283;51.466;5.478;2023-03-03T17:23:22;41.83;;;10.55;;
68365;SDS011;55283;51.466;5.478;2023-03-03T17:29:43;30.67;;;8.05;;
68365;SDS011;55283;51.466;5.478;2023-03-03T17:37:29;26.13;;;8.37;;
68365;SDS011;55283;51.466;5.478;2023-03-03T17:45:29;27.17;;;8.60;;
68365;SDS011;55283;51.466;5.478;2023-03-03T17:48:10;23.75;;;8.18;;
68365;SDS011;55283;51.466;5.478;2023-03-03T17:51:02;25.88;;;8.07;;
68365;SDS011;55283;51.466;5.478;2023-03-03T17:53:47;24.20;;;8.23;;
68365;SDS011;55283;51.466;5.478;2023-03-03T17:59:19;21.90;;;8.18;;
68365;SDS011;55283;51.466;5.478;2023-03-03T18:10:33;26.33;;;7.95;;
68365;SDS011;55283;51.466;5.478;2023-03-03T18:16:06;19.95;;;7.90;;
68365;SDS011;55283;51.466;5.478;2023-03-03T18:24:35;22.95;;;7.25;;
68365;SDS011;55283;51.466;5.478;2023-03-03T18:35:26;21.52;;;7.20;;
68365;SDS011;55283;51.466;5.478;2023-03-03T18:37:56;21.17;;;7.13;;
68365;SDS011;55283;51.466;5.478;2023-03-03T18:48:55;22.23;;;6.97;;
68365;SDS011;55283;51.466;5.478;2023-03-03T19:04:38;17.83;;;6.30;;
68365;SDS011;55283;51.466;5.478;2023-03-03T19:12:14;19.30;;;6.35;;
68365;SDS011;55283;51.466;5.478;2023-03-03T19:14:46;18.27;;;6.50;;
68365;SDS011;55283;51.466;5.478;2023-03-03T19:22:48;16.75;;;6.20;;
68365;SDS011;55283;51.466;5.478;2023-03-03T19:25:23;15.98;;;6.00;;
68365;SDS011;55283;51.466;5.478;2023-03-03T19:33:35;14.65;;;5.82;;
68365;SDS011;55283;51.466;5.478;2023-03-03T19:39:25;16.02;;;5.93;;
68365;SDS011;55283;51.466;5.478;2023-03-03T19:42:00;14.48;;;5.78;;
68365;SDS011;55283;51.466;5.478;2023-03-03T19:44:56;15.18;;;5.60;;
68365;SDS011;55283;51.466;5.478;2023-03-03T19:55:48;12.73;;;5.43;;
68365;SDS011;55283;51.466;5.478;2023-03-03T19:58:42;11.30;;;5.10;;
68365;SDS011;55283;51.466;5.478;2023-03-03T20:03:53;13.67;;;5.60;;
68365;SDS011;55283;51.466;5.478;2023-03-03T20:09:21;13.27;;;5.28;;
68365;SDS011;55283;51.466;5.478;2023-03-03T20:14:50;12.10;;;5.10;;
68365;SDS011;55283;51.466;5.478;2023-03-03T20:20:19;13.00;;;5.25;;
68365;SDS011;55283;51.466;5.478;2023-03-03T20:25:46;12.25;;;5.03;;
68365;SDS011;55283;51.466;5.478;2023-03-03T20:34:27;11.13;;;4.70;;
68365;SDS011;55283;51.466;5.478;2023-03-03T20:53:54;11.02;;;5.10;;
68365;SDS011;55283;51.466;5.478;2023-03-03T20:56:35;10.23;;;4.07;;
68365;SDS011;55283;51.466;5.478;2023-03-03T21:04:39;11.60;;;4.32;;
68365;SDS011;55283;51.466;5.478;2023-03-03T21:07:07;10.57;;;4.53;;
68365;SDS011;55283;51.466;5.478;2023-03-03T21:09:36;9.05;;;4.25;;
68365;SDS011;55283;51.466;5.478;2023-03-03T21:12:11;10.00;;;4.60;;
68365;SDS011;55283;51.466;5.478;2023-03-03T21:15:01;10.88;;;4.40;;
68365;SDS011;55283;51.466;5.478;2023-03-03T21:17:29;10.68;;;4.30;;
68365;SDS011;55283;51.466;5.478;2023-03-03T21:19:55;10.45;;;4.53;;
68365;SDS011;55283;51.466;5.478;2023-03-03T21:22:51;9.97;;;4.07;;
68365;SDS011;55283;51.466;5.478;2023-03-03T21:28:40;11.63;;;4.07;;
68365;SDS011;55283;51.466;5.478;2023-03-03T21:30:59;12.60;;;4.70;;
68365;SDS011;55283;51.466;5.478;2023-03-03T21:36:13;9.10;;;4.00;;
68365;SDS011;55283;51.466;5.478;2023-03-03T21:38:43;10.40;;;4.17;;
68365;SDS011;55283;51.466;5.478;2023-03-03T21:41:10;9.05;;;4.25;;
68365;SDS011;55283;51.466;5.478;2023-03-03T21:43:39;11.55;;;3.90;;
68365;SDS011;55283;51.466;5.478;2023-03-03T21:46:06;9.82;;;4.28;;
68365;SDS011;55283;51.466;5.478;2023-03-03T21:48:31;11.83;;;4.73;;
68365;SDS011;55283;51.466;5.478;2023-03-03T21:50:57;7.90;;;3.90;;
68365;SDS011;55283;51.466;5.478;2023-03-03T21:53:22;9.83;;;3.90;;
68365;SDS011;55283;51.466;5.478;2023-03-03T21:55:50;7.60;;;3.70;;
68365;SDS011;55283;51.466;5.478;2023-03-03T21:58:16;7.43;;;4.00;;
68365;SDS011;55283;51.466;5.478;2023-03-03T22:00:41;8.10;;;3.73;;
68365;SDS011;55283;51.466;5.478;2023-03-03T22:03:10;8.57;;;3.67;;